sensor_id;sensor_type;location;lat;lon;timestamp;P1;durP1;ratioP1;P2;durP2;ratioP2
70707;SDS011;58277;47.316;18.908;2023-11-21T00:01:22;25.80;;;12.45;;
70707;SDS011;58277;47.316;18.908;2023-11-21T00:03:45;24.83;;;13.37;;
70707;SDS011;58277;47.316;18.908;2023-11-21T00:06:08;23.20;;;11.65;;
70707;SDS011;58277;47.316;18.908;2023-11-21T00:08:35;24.63;;;12.63;;
70707;SDS011;58277;47.316;18.908;2023-11-21T00:10:58;24.95;;;12.95;;
70707;SDS011;58277;47.316;18.908;2023-11-21T00:13:22;26.70;;;12.85;;
70707;SDS011;58277;47.316;18.908;2023-11-21T00:15:45;25.63;;;12.53;;
70707;SDS011;58277;47.316;18.908;2023-11-21T00:18:08;23.83;;;12.73;;
70707;SDS011;58277;47.316;18.908;2023-11-21T00:20:35;26.33;;;13.15;;
70707;SDS011;58277;47.316;18.908;2023-11-21T00:22:58;26.77;;;12.48;;
70707;SDS011;58277;47.316;18.908;2023-11-21T00:25:21;23.83;;;12.65;;
70707;SDS011;58277;47.316;18.908;2023-11-21T00:27:44;23.83;;;12.13;;
70707;SDS011;58277;47.316;18.908;2023-11-21T00:30:10;27.10;;;12.02;;
70707;SDS011;58277;47.316;18.908;2023-11-21T00:32:36;25.65;;;11.73;;
70707;SDS011;58277;47.316;18.908;2023-11-21T00:35:00;27.70;;;12.90;;
70707;SDS011;58277;47.316;18.908;2023-11-21T00:37:23;22.30;;;11.85;;
70707;SDS011;58277;47.316;18.908;2023-11-21T00:39:47;24.47;;;12.53;;
70707;SDS011;58277;47.316;18.908;2023-11-21T00:42:10;27.55;;;12.95;;
70707;SDS011;58277;47.316;18.908;2023-11-21T00:44:37;25.80;;;12.32;;
70707;SDS011;58277;47.316;18.908;2023-11-21T00:47:01;26.60;;;13.15;;
70707;SDS011;58277;47.316;18.908;2023-11-21T00:49:25;25.70;;;11.98;;
70707;SDS011;58277;47.316;18.908;2023-11-21T00:51:48;24.87;;;12.87;;
70707;SDS011;58277;47.316;18.908;2023-11-21T00:54:13;26.13;;;13.13;;
70707;SDS011;58277;47.316;18.908;2023-11-21T00:56:39;24.35;;;12.73;;
70707;SDS011;58277;47.316;18.908;2023-11-21T00:59:02;27.60;;;12.70;;
70707;SDS011;58277;47.316;18.908;2023-11-21T01:01:27;23.48;;;12.18;;
70707;SDS011;58277;47.316;18.908;2023-11-21T01:03:50;25.13;;;12.23;;
70707;SDS011;58277;47.316;18.908;2023-11-21T01:06:14;23.67;;;11.93;;
70707;SDS011;58277;47.316;18.908;2023-11-21T01:08:38;25.75;;;12.35;;
70707;SDS011;58277;47.316;18.908;2023-11-21T01:11:01;24.58;;;12.80;;
70707;SDS011;58277;47.316;18.908;2023-11-21T01:13:24;24.73;;;12.48;;
70707;SDS011;58277;47.316;18.908;2023-11-21T01:15:50;26.00;;;13.13;;
70707;SDS011;58277;47.316;18.908;2023-11-21T01:18:14;29.30;;;13.13;;
70707;SDS011;58277;47.316;18.908;2023-11-21T01:20:38;27.20;;;13.60;;
70707;SDS011;58277;47.316;18.908;2023-11-21T01:23:01;28.10;;;14.45;;
70707;SDS011;58277;47.316;18.908;2023-11-21T01:25:24;27.58;;;14.43;;
70707;SDS011;58277;47.316;18.908;2023-11-21T01:27:46;28.00;;;14.37;;
70707;SDS011;58277;47.316;18.908;2023-11-21T01:30:10;30.05;;;14.73;;
70707;SDS011;58277;47.316;18.908;2023-11-21T01:32:37;30.23;;;14.10;;
70707;SDS011;58277;47.316;18.908;2023-11-21T01:35:00;30.02;;;14.15;;
70707;SDS011;58277;47.316;18.908;2023-11-21T01:37:22;27.85;;;14.65;;
70707;SDS011;58277;47.316;18.908;2023-11-21T01:39:46;28.57;;;16.13;;
70707;SDS011;58277;47.316;18.908;2023-11-21T01:42:10;31.50;;;14.93;;
70707;SDS011;58277;47.316;18.908;2023-11-21T01:44:36;30.15;;;14.48;;
70707;SDS011;58277;47.316;18.908;2023-11-21T01:46:59;26.90;;;13.40;;
70707;SDS011;58277;47.316;18.908;2023-11-21T01:49:22;27.67;;;13.55;;
70707;SDS011;58277;47.316;18.908;2023-11-21T01:51:45;29.77;;;13.57;;
70707;SDS011;58277;47.316;18.908;2023-11-21T01:54:11;27.52;;;13.63;;
70707;SDS011;58277;47.316;18.908;2023-11-21T01:56:39;28.02;;;13.45;;
70707;SDS011;58277;47.316;18.908;2023-11-21T01:59:02;28.02;;;14.10;;
70707;SDS011;58277;47.316;18.908;2023-11-21T02:01:25;28.23;;;13.40;;
70707;SDS011;58277;47.316;18.908;2023-11-21T02:03:48;24.30;;;12.90;;
70707;SDS011;58277;47.316;18.908;2023-11-21T02:06:12;26.92;;;13.18;;
70707;SDS011;58277;47.316;18.908;2023-11-21T02:08:36;26.10;;;13.02;;
70707;SDS011;58277;47.316;18.908;2023-11-21T02:11:00;27.60;;;13.60;;
70707;SDS011;58277;47.316;18.908;2023-11-21T02:13:22;31.30;;;14.73;;
70707;SDS011;58277;47.316;18.908;2023-11-21T02:15:45;30.03;;;14.67;;
70707;SDS011;58277;47.316;18.908;2023-11-21T02:18:10;29.70;;;14.95;;
70707;SDS011;58277;47.316;18.908;2023-11-21T02:20:35;33.60;;;15.55;;
70707;SDS011;58277;47.316;18.908;2023-11-21T02:23:01;29.58;;;14.40;;
70707;SDS011;58277;47.316;18.908;2023-11-21T02:25:24;26.85;;;13.07;;
70707;SDS011;58277;47.316;18.908;2023-11-21T02:27:48;28.03;;;13.10;;
70707;SDS011;58277;47.316;18.908;2023-11-21T02:30:11;26.92;;;13.60;;
70707;SDS011;58277;47.316;18.908;2023-11-21T02:32:36;28.80;;;14.13;;
70707;SDS011;58277;47.316;18.908;2023-11-21T02:35:10;24.33;;;13.15;;
70707;SDS011;58277;47.316;18.908;2023-11-21T02:37:34;27.00;;;13.20;;
70707;SDS011;58277;47.316;18.908;2023-11-21T02:39:57;25.63;;;13.43;;
70707;SDS011;58277;47.316;18.908;2023-11-21T02:42:21;26.20;;;12.82;;
70707;SDS011;58277;47.316;18.908;2023-11-21T02:44:44;24.60;;;12.70;;
70707;SDS011;58277;47.316;18.908;2023-11-21T02:47:07;27.00;;;14.02;;
70707;SDS011;58277;47.316;18.908;2023-11-21T02:49:31;27.55;;;13.95;;
70707;SDS011;58277;47.316;18.908;2023-11-21T02:51:54;28.53;;;14.07;;
70707;SDS011;58277;47.316;18.908;2023-11-21T02:54:17;27.33;;;13.82;;
70707;SDS011;58277;47.316;18.908;2023-11-21T02:56:41;27.85;;;13.85;;
70707;SDS011;58277;47.316;18.908;2023-11-21T02:59:04;25.42;;;14.07;;
70707;SDS011;58277;47.316;18.908;2023-11-21T03:01:27;27.20;;;13.40;;
70707;SDS011;58277;47.316;18.908;2023-11-21T03:03:50;26.20;;;13.53;;
70707;SDS011;58277;47.316;18.908;2023-11-21T03:06:14;25.10;;;12.93;;
70707;SDS011;58277;47.316;18.908;2023-11-21T03:08:38;25.58;;;12.65;;
70707;SDS011;58277;47.316;18.908;2023-11-21T03:11:00;24.33;;;12.32;;
70707;SDS011;58277;47.316;18.908;2023-11-21T03:13:25;23.65;;;12.60;;
70707;SDS011;58277;47.316;18.908;2023-11-21T03:15:48;24.27;;;12.40;;
70707;SDS011;58277;47.316;18.908;2023-11-21T03:18:11;21.85;;;11.95;;
70707;SDS011;58277;47.316;18.908;2023-11-21T03:20:36;25.08;;;12.70;;
70707;SDS011;58277;47.316;18.908;2023-11-21T03:22:59;25.17;;;12.38;;
70707;SDS011;58277;47.316;18.908;2023-11-21T03:25:22;23.95;;;12.70;;
70707;SDS011;58277;47.316;18.908;2023-11-21T03:27:46;19.43;;;9.33;;
70707;SDS011;58277;47.316;18.908;2023-11-21T03:30:10;18.75;;;8.75;;
70707;SDS011;58277;47.316;18.908;2023-11-21T03:32:36;22.52;;;9.40;;
70707;SDS011;58277;47.316;18.908;2023-11-21T03:34:59;20.70;;;10.57;;
70707;SDS011;58277;47.316;18.908;2023-11-21T03:37:22;20.50;;;10.88;;
70707;SDS011;58277;47.316;18.908;2023-11-21T03:39:45;23.33;;;11.33;;
70707;SDS011;58277;47.316;18.908;2023-11-21T03:42:09;18.77;;;10.00;;
70707;SDS011;58277;47.316;18.908;2023-11-21T03:44:35;21.15;;;10.38;;
70707;SDS011;58277;47.316;18.908;2023-11-21T03:46:57;20.05;;;9.88;;
70707;SDS011;58277;47.316;18.908;2023-11-21T03:49:20;18.38;;;10.05;;
70707;SDS011;58277;47.316;18.908;2023-11-21T03:51:43;21.60;;;9.50;;
70707;SDS011;58277;47.316;18.908;2023-11-21T03:54:06;19.00;;;9.68;;
70707;SDS011;58277;47.316;18.908;2023-11-21T03:56:29;21.88;;;9.55;;
70707;SDS011;58277;47.316;18.908;2023-11-21T03:58:52;18.85;;;8.77;;
70707;SDS011;58277;47.316;18.908;2023-11-21T04:01:24;19.27;;;10.50;;
70707;SDS011;58277;47.316;18.908;2023-11-21T04:03:47;17.80;;;8.03;;
70707;SDS011;58277;47.316;18.908;2023-11-21T04:06:11;14.85;;;7.60;;
70707;SDS011;58277;47.316;18.908;2023-11-21T04:08:35;16.17;;;8.10;;
70707;SDS011;58277;47.316;18.908;2023-11-21T04:10:58;16.23;;;8.40;;
70707;SDS011;58277;47.316;18.908;2023-11-21T04:13:21;16.48;;;8.60;;
70707;SDS011;58277;47.316;18.908;2023-11-21T04:15:43;18.73;;;8.50;;
70707;SDS011;58277;47.316;18.908;2023-11-21T04:18:08;14.25;;;8.00;;
70707;SDS011;58277;47.316;18.908;2023-11-21T04:20:37;19.83;;;8.88;;
70707;SDS011;58277;47.316;18.908;2023-11-21T04:22:59;16.33;;;7.97;;
70707;SDS011;58277;47.316;18.908;2023-11-21T04:25:22;16.20;;;8.52;;
70707;SDS011;58277;47.316;18.908;2023-11-21T04:27:45;14.03;;;7.50;;
70707;SDS011;58277;47.316;18.908;2023-11-21T04:30:08;16.60;;;7.45;;
70707;SDS011;58277;47.316;18.908;2023-11-21T04:32:35;14.52;;;7.55;;
70707;SDS011;58277;47.316;18.908;2023-11-21T04:34:58;14.35;;;7.35;;
70707;SDS011;58277;47.316;18.908;2023-11-21T04:37:21;16.05;;;7.70;;
70707;SDS011;58277;47.316;18.908;2023-11-21T04:39:43;17.33;;;8.63;;
70707;SDS011;58277;47.316;18.908;2023-11-21T04:42:08;18.23;;;8.50;;
70707;SDS011;58277;47.316;18.908;2023-11-21T04:44:33;14.52;;;7.65;;
70707;SDS011;58277;47.316;18.908;2023-11-21T04:46:55;15.20;;;7.50;;
70707;SDS011;58277;47.316;18.908;2023-11-21T04:49:18;15.05;;;7.00;;
70707;SDS011;58277;47.316;18.908;2023-11-21T04:51:41;16.37;;;7.50;;
70707;SDS011;58277;47.316;18.908;2023-11-21T04:54:03;14.65;;;6.93;;
70707;SDS011;58277;47.316;18.908;2023-11-21T04:56:32;16.13;;;7.47;;
70707;SDS011;58277;47.316;18.908;2023-11-21T04:58:55;19.85;;;10.65;;
70707;SDS011;58277;47.316;18.908;2023-11-21T05:01:17;22.92;;;12.35;;
70707;SDS011;58277;47.316;18.908;2023-11-21T05:03:40;21.57;;;11.00;;
70707;SDS011;58277;47.316;18.908;2023-11-21T05:06:03;32.22;;;12.68;;
70707;SDS011;58277;47.316;18.908;2023-11-21T05:08:32;25.10;;;11.52;;
70707;SDS011;58277;47.316;18.908;2023-11-21T05:10:55;18.08;;;10.32;;
70707;SDS011;58277;47.316;18.908;2023-11-21T05:13:17;20.58;;;10.98;;
70707;SDS011;58277;47.316;18.908;2023-11-21T05:15:41;19.70;;;10.13;;
70707;SDS011;58277;47.316;18.908;2023-11-21T05:18:03;20.90;;;10.82;;
70707;SDS011;58277;47.316;18.908;2023-11-21T05:20:34;19.02;;;10.63;;
70707;SDS011;58277;47.316;18.908;2023-11-21T05:22:56;22.38;;;10.70;;
70707;SDS011;58277;47.316;18.908;2023-11-21T05:25:21;20.95;;;10.48;;
70707;SDS011;58277;47.316;18.908;2023-11-21T05:27:44;22.90;;;11.73;;
70707;SDS011;58277;47.316;18.908;2023-11-21T05:30:08;30.55;;;13.18;;
70707;SDS011;58277;47.316;18.908;2023-11-21T05:32:36;29.58;;;12.15;;
70707;SDS011;58277;47.316;18.908;2023-11-21T05:34:58;35.22;;;14.40;;
70707;SDS011;58277;47.316;18.908;2023-11-21T05:37:21;34.63;;;15.32;;
70707;SDS011;58277;47.316;18.908;2023-11-21T05:39:45;25.33;;;12.50;;
70707;SDS011;58277;47.316;18.908;2023-11-21T05:42:10;24.42;;;12.27;;
70707;SDS011;58277;47.316;18.908;2023-11-21T05:44:37;21.77;;;11.23;;
70707;SDS011;58277;47.316;18.908;2023-11-21T05:47:04;24.13;;;11.75;;
70707;SDS011;58277;47.316;18.908;2023-11-21T05:49:29;22.77;;;11.75;;
70707;SDS011;58277;47.316;18.908;2023-11-21T05:51:55;23.23;;;11.40;;
70707;SDS011;58277;47.316;18.908;2023-11-21T05:54:22;24.52;;;12.15;;
70707;SDS011;58277;47.316;18.908;2023-11-21T05:56:46;51.97;;;21.20;;
70707;SDS011;58277;47.316;18.908;2023-11-21T05:59:09;24.85;;;11.45;;
70707;SDS011;58277;47.316;18.908;2023-11-21T06:01:32;21.23;;;9.55;;
70707;SDS011;58277;47.316;18.908;2023-11-21T06:03:55;17.90;;;8.73;;
70707;SDS011;58277;47.316;18.908;2023-11-21T06:06:18;20.33;;;9.65;;
70707;SDS011;58277;47.316;18.908;2023-11-21T06:08:42;25.73;;;12.50;;
70707;SDS011;58277;47.316;18.908;2023-11-21T06:11:05;19.83;;;9.35;;
70707;SDS011;58277;47.316;18.908;2023-11-21T06:13:27;18.27;;;8.90;;
70707;SDS011;58277;47.316;18.908;2023-11-21T06:15:51;16.13;;;8.30;;
70707;SDS011;58277;47.316;18.908;2023-11-21T06:18:14;21.05;;;9.35;;
70707;SDS011;58277;47.316;18.908;2023-11-21T06:20:38;18.42;;;9.02;;
70707;SDS011;58277;47.316;18.908;2023-11-21T06:23:04;17.48;;;8.25;;
70707;SDS011;58277;47.316;18.908;2023-11-21T06:25:28;19.52;;;9.23;;
70707;SDS011;58277;47.316;18.908;2023-11-21T06:27:51;22.33;;;9.00;;
70707;SDS011;58277;47.316;18.908;2023-11-21T06:30:17;16.38;;;8.30;;
70707;SDS011;58277;47.316;18.908;2023-11-21T06:32:43;18.58;;;8.73;;
70707;SDS011;58277;47.316;18.908;2023-11-21T06:35:10;17.33;;;8.10;;
70707;SDS011;58277;47.316;18.908;2023-11-21T06:37:33;17.45;;;8.73;;
70707;SDS011;58277;47.316;18.908;2023-11-21T06:39:56;19.57;;;8.63;;
70707;SDS011;58277;47.316;18.908;2023-11-21T06:42:20;18.15;;;8.57;;
70707;SDS011;58277;47.316;18.908;2023-11-21T06:44:44;19.23;;;9.27;;
70707;SDS011;58277;47.316;18.908;2023-11-21T06:47:07;17.13;;;8.13;;
70707;SDS011;58277;47.316;18.908;2023-11-21T06:49:29;18.33;;;8.50;;
70707;SDS011;58277;47.316;18.908;2023-11-21T06:51:53;18.07;;;8.67;;
70707;SDS011;58277;47.316;18.908;2023-11-21T06:54:18;17.75;;;8.45;;
70707;SDS011;58277;47.316;18.908;2023-11-21T06:56:43;19.73;;;8.73;;
70707;SDS011;58277;47.316;18.908;2023-11-21T06:59:05;18.75;;;8.90;;
70707;SDS011;58277;47.316;18.908;2023-11-21T07:01:29;18.40;;;8.60;;
70707;SDS011;58277;47.316;18.908;2023-11-21T07:03:52;16.27;;;8.60;;
70707;SDS011;58277;47.316;18.908;2023-11-21T07:06:15;16.90;;;8.65;;
70707;SDS011;58277;47.316;18.908;2023-11-21T07:08:40;15.02;;;8.80;;
70707;SDS011;58277;47.316;18.908;2023-11-21T07:11:04;19.05;;;8.52;;
70707;SDS011;58277;47.316;18.908;2023-11-21T07:13:27;17.38;;;8.55;;
70707;SDS011;58277;47.316;18.908;2023-11-21T07:15:50;16.67;;;8.33;;
70707;SDS011;58277;47.316;18.908;2023-11-21T07:18:14;18.83;;;8.60;;
70707;SDS011;58277;47.316;18.908;2023-11-21T07:20:38;19.70;;;8.57;;
70707;SDS011;58277;47.316;18.908;2023-11-21T07:23:01;17.20;;;8.18;;
70707;SDS011;58277;47.316;18.908;2023-11-21T07:25:23;15.93;;;8.38;;
70707;SDS011;58277;47.316;18.908;2023-11-21T07:27:46;15.60;;;8.33;;
70707;SDS011;58277;47.316;18.908;2023-11-21T07:30:10;17.10;;;8.02;;
70707;SDS011;58277;47.316;18.908;2023-11-21T07:32:36;15.48;;;8.30;;
70707;SDS011;58277;47.316;18.908;2023-11-21T07:35:02;16.55;;;7.88;;
70707;SDS011;58277;47.316;18.908;2023-11-21T07:37:26;14.57;;;8.00;;
70707;SDS011;58277;47.316;18.908;2023-11-21T07:39:51;16.60;;;8.10;;
70707;SDS011;58277;47.316;18.908;2023-11-21T07:42:18;17.67;;;8.82;;
70707;SDS011;58277;47.316;18.908;2023-11-21T07:44:47;19.70;;;9.90;;
70707;SDS011;58277;47.316;18.908;2023-11-21T07:47:09;18.65;;;9.88;;
70707;SDS011;58277;47.316;18.908;2023-11-21T07:52:18;25.47;;;11.90;;
70707;SDS011;58277;47.316;18.908;2023-11-21T07:54:43;22.58;;;11.35;;
70707;SDS011;58277;47.316;18.908;2023-11-21T07:57:07;23.02;;;11.60;;
70707;SDS011;58277;47.316;18.908;2023-11-21T07:59:30;31.52;;;13.40;;
70707;SDS011;58277;47.316;18.908;2023-11-21T08:01:53;51.83;;;20.33;;
70707;SDS011;58277;47.316;18.908;2023-11-21T08:04:16;42.03;;;18.43;;
70707;SDS011;58277;47.316;18.908;2023-11-21T08:06:39;39.13;;;16.85;;
70707;SDS011;58277;47.316;18.908;2023-11-21T08:09:04;30.05;;;14.43;;
70707;SDS011;58277;47.316;18.908;2023-11-21T08:11:28;36.17;;;17.73;;
70707;SDS011;58277;47.316;18.908;2023-11-21T08:13:54;32.65;;;16.08;;
70707;SDS011;58277;47.316;18.908;2023-11-21T08:16:17;25.37;;;12.47;;
70707;SDS011;58277;47.316;18.908;2023-11-21T08:18:41;30.60;;;15.13;;
70707;SDS011;58277;47.316;18.908;2023-11-21T08:21:03;31.17;;;16.52;;
70707;SDS011;58277;47.316;18.908;2023-11-21T08:23:27;29.88;;;16.45;;
70707;SDS011;58277;47.316;18.908;2023-11-21T08:25:51;28.25;;;15.32;;
70707;SDS011;58277;47.316;18.908;2023-11-21T08:28:15;23.10;;;12.43;;
70707;SDS011;58277;47.316;18.908;2023-11-21T08:30:39;22.63;;;11.38;;
70707;SDS011;58277;47.316;18.908;2023-11-21T08:33:03;23.02;;;11.32;;
70707;SDS011;58277;47.316;18.908;2023-11-21T08:35:27;23.40;;;10.75;;
70707;SDS011;58277;47.316;18.908;2023-11-21T08:37:53;21.30;;;10.95;;
70707;SDS011;58277;47.316;18.908;2023-11-21T08:40:17;21.70;;;11.03;;
70707;SDS011;58277;47.316;18.908;2023-11-21T08:42:40;20.88;;;10.57;;
70707;SDS011;58277;47.316;18.908;2023-11-21T08:45:04;20.48;;;11.05;;
70707;SDS011;58277;47.316;18.908;2023-11-21T08:47:32;25.70;;;12.65;;
70707;SDS011;58277;47.316;18.908;2023-11-21T08:49:55;25.35;;;12.55;;
70707;SDS011;58277;47.316;18.908;2023-11-21T08:52:18;26.87;;;13.20;;
70707;SDS011;58277;47.316;18.908;2023-11-21T08:54:45;25.45;;;12.10;;
70707;SDS011;58277;47.316;18.908;2023-11-21T08:57:08;32.38;;;16.42;;
70707;SDS011;58277;47.316;18.908;2023-11-21T08:59:31;31.27;;;15.40;;
70707;SDS011;58277;47.316;18.908;2023-11-21T09:01:54;26.38;;;12.45;;
70707;SDS011;58277;47.316;18.908;2023-11-21T09:04:16;23.37;;;10.97;;
70707;SDS011;58277;47.316;18.908;2023-11-21T09:06:40;19.83;;;9.02;;
70707;SDS011;58277;47.316;18.908;2023-11-21T09:09:06;16.85;;;8.38;;
70707;SDS011;58277;47.316;18.908;2023-11-21T09:11:31;19.58;;;8.18;;
70707;SDS011;58277;47.316;18.908;2023-11-21T09:13:57;15.63;;;7.38;;
70707;SDS011;58277;47.316;18.908;2023-11-21T09:16:20;13.47;;;6.50;;
70707;SDS011;58277;47.316;18.908;2023-11-21T09:18:43;14.07;;;6.40;;
70707;SDS011;58277;47.316;18.908;2023-11-21T09:21:07;12.63;;;6.40;;
70707;SDS011;58277;47.316;18.908;2023-11-21T09:23:31;13.05;;;6.18;;
70707;SDS011;58277;47.316;18.908;2023-11-21T09:25:54;11.68;;;5.70;;
70707;SDS011;58277;47.316;18.908;2023-11-21T09:28:20;10.77;;;5.50;;
70707;SDS011;58277;47.316;18.908;2023-11-21T09:30:43;11.23;;;5.80;;
70707;SDS011;58277;47.316;18.908;2023-11-21T09:33:06;11.20;;;5.90;;
70707;SDS011;58277;47.316;18.908;2023-11-21T09:35:29;11.50;;;5.50;;
70707;SDS011;58277;47.316;18.908;2023-11-21T09:37:52;13.20;;;5.55;;
70707;SDS011;58277;47.316;18.908;2023-11-21T09:40:15;11.73;;;5.10;;
70707;SDS011;58277;47.316;18.908;2023-11-21T09:42:40;10.98;;;4.97;;
70707;SDS011;58277;47.316;18.908;2023-11-21T09:45:28;11.13;;;5.28;;
70707;SDS011;58277;47.316;18.908;2023-11-21T09:47:56;10.10;;;5.30;;
70707;SDS011;58277;47.316;18.908;2023-11-21T09:50:19;12.63;;;5.80;;
70707;SDS011;58277;47.316;18.908;2023-11-21T09:55:18;13.55;;;5.93;;
70707;SDS011;58277;47.316;18.908;2023-11-21T09:57:43;14.73;;;7.95;;
70707;SDS011;58277;47.316;18.908;2023-11-21T10:00:09;18.15;;;9.60;;
70707;SDS011;58277;47.316;18.908;2023-11-21T10:02:41;16.25;;;9.02;;
70707;SDS011;58277;47.316;18.908;2023-11-21T10:05:06;16.43;;;7.90;;
70707;SDS011;58277;47.316;18.908;2023-11-21T10:07:32;14.18;;;7.30;;
70707;SDS011;58277;47.316;18.908;2023-11-21T10:09:59;17.33;;;8.25;;
70707;SDS011;58277;47.316;18.908;2023-11-21T10:12:47;15.18;;;7.20;;
70707;SDS011;58277;47.316;18.908;2023-11-21T10:15:15;17.42;;;7.95;;
70707;SDS011;58277;47.316;18.908;2023-11-21T10:17:38;17.00;;;8.20;;
70707;SDS011;58277;47.316;18.908;2023-11-21T10:20:08;15.55;;;8.38;;
70707;SDS011;58277;47.316;18.908;2023-11-21T10:22:34;17.20;;;8.07;;
70707;SDS011;58277;47.316;18.908;2023-11-21T10:24:57;16.13;;;8.20;;
70707;SDS011;58277;47.316;18.908;2023-11-21T10:27:20;14.63;;;7.40;;
70707;SDS011;58277;47.316;18.908;2023-11-21T10:29:43;13.57;;;7.47;;
70707;SDS011;58277;47.316;18.908;2023-11-21T10:32:06;15.63;;;7.82;;
70707;SDS011;58277;47.316;18.908;2023-11-21T10:34:29;14.68;;;7.63;;
70707;SDS011;58277;47.316;18.908;2023-11-21T10:36:52;16.13;;;8.77;;
70707;SDS011;58277;47.316;18.908;2023-11-21T10:39:18;18.30;;;9.57;;
70707;SDS011;58277;47.316;18.908;2023-11-21T10:41:43;18.20;;;8.47;;
70707;SDS011;58277;47.316;18.908;2023-11-21T10:44:08;15.40;;;7.50;;
70707;SDS011;58277;47.316;18.908;2023-11-21T10:46:32;14.88;;;7.90;;
70707;SDS011;58277;47.316;18.908;2023-11-21T10:48:56;15.95;;;7.75;;
70707;SDS011;58277;47.316;18.908;2023-11-21T10:51:20;16.45;;;8.15;;
70707;SDS011;58277;47.316;18.908;2023-11-21T10:53:43;15.07;;;7.43;;
70707;SDS011;58277;47.316;18.908;2023-11-21T10:56:09;16.27;;;7.93;;
70707;SDS011;58277;47.316;18.908;2023-11-21T10:58:42;16.92;;;8.13;;
70707;SDS011;58277;47.316;18.908;2023-11-21T11:01:06;18.48;;;8.80;;
70707;SDS011;58277;47.316;18.908;2023-11-21T11:03:30;18.83;;;8.30;;
70707;SDS011;58277;47.316;18.908;2023-11-21T11:05:56;15.77;;;8.60;;
70707;SDS011;58277;47.316;18.908;2023-11-21T11:08:23;18.08;;;9.43;;
70707;SDS011;58277;47.316;18.908;2023-11-21T11:10:50;18.38;;;9.30;;
70707;SDS011;58277;47.316;18.908;2023-11-21T11:13:13;18.63;;;9.15;;
70707;SDS011;58277;47.316;18.908;2023-11-21T11:15:38;16.80;;;7.90;;
70707;SDS011;58277;47.316;18.908;2023-11-21T11:18:02;14.53;;;7.37;;
70707;SDS011;58277;47.316;18.908;2023-11-21T11:20:36;13.60;;;7.38;;
70707;SDS011;58277;47.316;18.908;2023-11-21T11:26:45;12.48;;;6.85;;
70707;SDS011;58277;47.316;18.908;2023-11-21T11:31:49;14.47;;;6.70;;
70707;SDS011;58277;47.316;18.908;2023-11-21T11:34:34;12.43;;;6.95;;
70707;SDS011;58277;47.316;18.908;2023-11-21T11:37:03;13.38;;;6.88;;
70707;SDS011;58277;47.316;18.908;2023-11-21T11:39:30;13.02;;;6.30;;
70707;SDS011;58277;47.316;18.908;2023-11-21T11:42:11;11.75;;;6.78;;
70707;SDS011;58277;47.316;18.908;2023-11-21T11:47:13;13.82;;;6.93;;
70707;SDS011;58277;47.316;18.908;2023-11-21T11:55:04;18.63;;;11.05;;
70707;SDS011;58277;47.316;18.908;2023-11-21T11:57:31;15.20;;;8.20;;
70707;SDS011;58277;47.316;18.908;2023-11-21T12:02:44;14.43;;;7.68;;
70707;SDS011;58277;47.316;18.908;2023-11-21T12:05:11;15.07;;;7.60;;
70707;SDS011;58277;47.316;18.908;2023-11-21T12:07:44;15.60;;;7.45;;
70707;SDS011;58277;47.316;18.908;2023-11-21T12:10:10;12.27;;;7.17;;
70707;SDS011;58277;47.316;18.908;2023-11-21T12:12:35;15.32;;;7.30;;
70707;SDS011;58277;47.316;18.908;2023-11-21T12:14:58;17.42;;;8.88;;
70707;SDS011;58277;47.316;18.908;2023-11-21T12:17:21;15.50;;;7.80;;
70707;SDS011;58277;47.316;18.908;2023-11-21T12:19:45;15.35;;;8.00;;
70707;SDS011;58277;47.316;18.908;2023-11-21T12:22:08;14.37;;;7.60;;
70707;SDS011;58277;47.316;18.908;2023-11-21T12:24:31;14.25;;;7.45;;
70707;SDS011;58277;47.316;18.908;2023-11-21T12:26:54;13.05;;;7.28;;
70707;SDS011;58277;47.316;18.908;2023-11-21T12:29:17;13.45;;;7.00;;
70707;SDS011;58277;47.316;18.908;2023-11-21T12:31:40;15.57;;;8.32;;
70707;SDS011;58277;47.316;18.908;2023-11-21T12:34:04;15.27;;;7.70;;
70707;SDS011;58277;47.316;18.908;2023-11-21T12:36:29;14.10;;;8.55;;
70707;SDS011;58277;47.316;18.908;2023-11-21T12:38:52;15.95;;;8.25;;
70707;SDS011;58277;47.316;18.908;2023-11-21T12:41:15;15.75;;;8.32;;
70707;SDS011;58277;47.316;18.908;2023-11-21T12:43:39;18.05;;;9.02;;
70707;SDS011;58277;47.316;18.908;2023-11-21T12:46:08;25.27;;;11.10;;
70707;SDS011;58277;47.316;18.908;2023-11-21T12:48:33;28.77;;;12.32;;
70707;SDS011;58277;47.316;18.908;2023-11-21T12:50:56;29.23;;;13.65;;
70707;SDS011;58277;47.316;18.908;2023-11-21T12:53:22;26.98;;;11.73;;
70707;SDS011;58277;47.316;18.908;2023-11-21T12:55:45;21.45;;;10.65;;
70707;SDS011;58277;47.316;18.908;2023-11-21T12:58:12;17.83;;;9.70;;
70707;SDS011;58277;47.316;18.908;2023-11-21T13:00:39;15.77;;;8.48;;
70707;SDS011;58277;47.316;18.908;2023-11-21T13:03:05;15.85;;;8.60;;
70707;SDS011;58277;47.316;18.908;2023-11-21T13:05:31;16.75;;;8.23;;
70707;SDS011;58277;47.316;18.908;2023-11-21T13:07:56;15.15;;;8.10;;
70707;SDS011;58277;47.316;18.908;2023-11-21T13:10:24;14.07;;;8.00;;
70707;SDS011;58277;47.316;18.908;2023-11-21T13:12:49;15.35;;;8.70;;
70707;SDS011;58277;47.316;18.908;2023-11-21T13:15:14;13.85;;;7.70;;
70707;SDS011;58277;47.316;18.908;2023-11-21T13:17:40;15.88;;;8.70;;
70707;SDS011;58277;47.316;18.908;2023-11-21T13:20:03;15.55;;;7.97;;
70707;SDS011;58277;47.316;18.908;2023-11-21T13:22:30;14.33;;;7.80;;
70707;SDS011;58277;47.316;18.908;2023-11-21T13:24:53;12.27;;;7.80;;
70707;SDS011;58277;47.316;18.908;2023-11-21T13:27:16;19.02;;;9.68;;
70707;SDS011;58277;47.316;18.908;2023-11-21T13:29:38;19.20;;;10.85;;
70707;SDS011;58277;47.316;18.908;2023-11-21T13:32:02;20.33;;;10.20;;
70707;SDS011;58277;47.316;18.908;2023-11-21T13:34:27;21.23;;;10.70;;
70707;SDS011;58277;47.316;18.908;2023-11-21T13:36:55;22.75;;;11.63;;
70707;SDS011;58277;47.316;18.908;2023-11-21T13:39:21;21.50;;;10.73;;
70707;SDS011;58277;47.316;18.908;2023-11-21T13:41:44;20.10;;;11.40;;
70707;SDS011;58277;47.316;18.908;2023-11-21T13:44:10;18.42;;;10.10;;
70707;SDS011;58277;47.316;18.908;2023-11-21T13:46:49;23.20;;;10.50;;
70707;SDS011;58277;47.316;18.908;2023-11-21T13:49:12;28.65;;;13.30;;
70707;SDS011;58277;47.316;18.908;2023-11-21T13:51:37;21.98;;;10.88;;
70707;SDS011;58277;47.316;18.908;2023-11-21T13:54:06;27.38;;;12.95;;
70707;SDS011;58277;47.316;18.908;2023-11-21T13:56:36;28.00;;;12.63;;
70707;SDS011;58277;47.316;18.908;2023-11-21T13:58:59;25.00;;;11.90;;
70707;SDS011;58277;47.316;18.908;2023-11-21T14:01:31;22.92;;;10.70;;
70707;SDS011;58277;47.316;18.908;2023-11-21T14:03:54;23.92;;;11.27;;
70707;SDS011;58277;47.316;18.908;2023-11-21T14:06:24;34.33;;;14.13;;
70707;SDS011;58277;47.316;18.908;2023-11-21T14:09:00;22.88;;;11.40;;
70707;SDS011;58277;47.316;18.908;2023-11-21T14:11:27;22.43;;;10.97;;
70707;SDS011;58277;47.316;18.908;2023-11-21T14:13:57;24.02;;;11.63;;
70707;SDS011;58277;47.316;18.908;2023-11-21T14:16:21;23.10;;;11.15;;
70707;SDS011;58277;47.316;18.908;2023-11-21T14:18:45;23.35;;;11.60;;
70707;SDS011;58277;47.316;18.908;2023-11-21T14:21:34;24.13;;;11.77;;
70707;SDS011;58277;47.316;18.908;2023-11-21T14:23:57;26.47;;;11.57;;